sensor_id;sensor_type;location;lat;lon;timestamp;P1;durP1;ratioP1;P2;durP2;ratioP2
13269;SDS011;6703;51.994;7.570;2023-02-08T00:00:44;50.83;;;18.65;;
13269;SDS011;6703;51.994;7.570;2023-02-08T00:03:12;43.25;;;17.92;;
13269;SDS011;6703;51.994;7.570;2023-02-08T00:05:39;47.47;;;19.10;;
13269;SDS011;6703;51.994;7.570;2023-02-08T00:08:07;49.92;;;19.45;;
13269;SDS011;6703;51.994;7.570;2023-02-08T00:10:35;45.53;;;17.88;;
13269;SDS011;6703;51.994;7.570;2023-02-08T00:13:03;46.05;;;18.95;;
13269;SDS011;6703;51.994;7.570;2023-02-08T00:15:31;42.07;;;17.40;;
13269;SDS011;6703;51.994;7.570;2023-02-08T00:18:00;40.58;;;17.48;;
13269;SDS011;6703;51.994;7.570;2023-02-08T00:20:28;46.70;;;18.75;;
13269;SDS011;6703;51.994;7.570;2023-02-08T00:22:55;47.47;;;19.10;;
13269;SDS011;6703;51.994;7.570;2023-02-08T00:25:23;46.25;;;18.25;;
13269;SDS011;6703;51.994;7.570;2023-02-08T00:27:51;45.30;;;18.95;;
13269;SDS011;6703;51.994;7.570;2023-02-08T00:30:19;52.70;;;19.27;;
13269;SDS011;6703;51.994;7.570;2023-02-08T00:32:47;50.22;;;19.25;;
13269;SDS011;6703;51.994;7.570;2023-02-08T00:35:16;47.50;;;18.38;;
13269;SDS011;6703;51.994;7.570;2023-02-08T00:37:43;46.33;;;18.52;;
13269;SDS011;6703;51.994;7.570;2023-02-08T00:40:11;48.38;;;18.92;;
13269;SDS011;6703;51.994;7.570;2023-02-08T00:42:39;46.33;;;19.25;;
13269;SDS011;6703;51.994;7.570;2023-02-08T00:45:07;50.75;;;19.10;;
13269;SDS011;6703;51.994;7.570;2023-02-08T00:47:35;46.50;;;19.38;;
13269;SDS011;6703;51.994;7.570;2023-02-08T00:50:03;50.03;;;20.08;;
13269;SDS011;6703;51.994;7.570;2023-02-08T00:52:33;51.50;;;20.23;;
13269;SDS011;6703;51.994;7.570;2023-02-08T00:55:01;51.90;;;19.27;;
13269;SDS011;6703;51.994;7.570;2023-02-08T00:57:29;45.95;;;19.13;;
13269;SDS011;6703;51.994;7.570;2023-02-08T00:59:58;41.78;;;17.50;;
13269;SDS011;6703;51.994;7.570;2023-02-08T01:02:26;49.20;;;19.17;;
13269;SDS011;6703;51.994;7.570;2023-02-08T01:04:53;46.17;;;17.67;;
13269;SDS011;6703;51.994;7.570;2023-02-08T01:07:21;47.80;;;19.10;;
13269;SDS011;6703;51.994;7.570;2023-02-08T01:09:50;49.95;;;19.52;;
13269;SDS011;6703;51.994;7.570;2023-02-08T01:12:18;48.45;;;19.27;;
13269;SDS011;6703;51.994;7.570;2023-02-08T01:14:46;51.92;;;19.42;;
13269;SDS011;6703;51.994;7.570;2023-02-08T01:17:13;47.10;;;18.23;;
13269;SDS011;6703;51.994;7.570;2023-02-08T01:19:41;50.40;;;18.88;;
13269;SDS011;6703;51.994;7.570;2023-02-08T01:22:09;44.67;;;18.33;;
13269;SDS011;6703;51.994;7.570;2023-02-08T01:24:36;45.08;;;18.88;;
13269;SDS011;6703;51.994;7.570;2023-02-08T01:27:05;49.33;;;19.60;;
13269;SDS011;6703;51.994;7.570;2023-02-08T01:29:33;47.05;;;19.10;;
13269;SDS011;6703;51.994;7.570;2023-02-08T01:32:20;52.53;;;19.15;;
13269;SDS011;6703;51.994;7.570;2023-02-08T01:34:48;50.90;;;19.25;;
13269;SDS011;6703;51.994;7.570;2023-02-08T01:37:15;48.55;;;19.42;;
13269;SDS011;6703;51.994;7.570;2023-02-08T01:39:43;46.20;;;19.00;;
13269;SDS011;6703;51.994;7.570;2023-02-08T01:42:13;51.50;;;19.60;;
13269;SDS011;6703;51.994;7.570;2023-02-08T01:45:17;53.22;;;19.33;;
13269;SDS011;6703;51.994;7.570;2023-02-08T01:47:51;50.63;;;19.05;;
13269;SDS011;6703;51.994;7.570;2023-02-08T01:50:22;46.33;;;18.75;;
13269;SDS011;6703;51.994;7.570;2023-02-08T01:52:51;47.47;;;18.33;;
13269;SDS011;6703;51.994;7.570;2023-02-08T01:55:19;48.25;;;18.92;;
13269;SDS011;6703;51.994;7.570;2023-02-08T01:57:51;46.20;;;17.73;;
13269;SDS011;6703;51.994;7.570;2023-02-08T02:00:21;50.30;;;19.55;;
13269;SDS011;6703;51.994;7.570;2023-02-08T02:02:51;48.10;;;18.95;;
13269;SDS011;6703;51.994;7.570;2023-02-08T02:05:20;50.95;;;19.92;;
13269;SDS011;6703;51.994;7.570;2023-02-08T02:07:49;51.87;;;19.27;;
13269;SDS011;6703;51.994;7.570;2023-02-08T02:10:18;45.33;;;18.83;;
13269;SDS011;6703;51.994;7.570;2023-02-08T02:12:51;47.30;;;18.45;;
13269;SDS011;6703;51.994;7.570;2023-02-08T02:15:20;47.83;;;19.95;;
13269;SDS011;6703;51.994;7.570;2023-02-08T02:17:48;49.35;;;19.08;;
13269;SDS011;6703;51.994;7.570;2023-02-08T02:20:17;44.70;;;18.87;;
13269;SDS011;6703;51.994;7.570;2023-02-08T02:23:01;48.03;;;18.83;;
13269;SDS011;6703;51.994;7.570;2023-02-08T02:25:51;49.45;;;18.70;;
13269;SDS011;6703;51.994;7.570;2023-02-08T02:28:40;42.72;;;17.75;;
13269;SDS011;6703;51.994;7.570;2023-02-08T02:31:40;44.93;;;17.67;;
13269;SDS011;6703;51.994;7.570;2023-02-08T02:34:31;43.83;;;16.65;;
13269;SDS011;6703;51.994;7.570;2023-02-08T02:37:05;43.83;;;17.57;;
13269;SDS011;6703;51.994;7.570;2023-02-08T02:39:38;47.42;;;17.08;;
13269;SDS011;6703;51.994;7.570;2023-02-08T02:42:11;46.83;;;17.83;;
13269;SDS011;6703;51.994;7.570;2023-02-08T02:45:02;45.47;;;17.93;;
13269;SDS011;6703;51.994;7.570;2023-02-08T02:47:36;42.28;;;17.77;;
13269;SDS011;6703;51.994;7.570;2023-02-08T02:50:08;46.43;;;18.50;;
13269;SDS011;6703;51.994;7.570;2023-02-08T02:52:40;44.73;;;18.00;;
13269;SDS011;6703;51.994;7.570;2023-02-08T02:55:10;50.40;;;18.63;;
13269;SDS011;6703;51.994;7.570;2023-02-08T02:57:41;46.63;;;17.10;;
13269;SDS011;6703;51.994;7.570;2023-02-08T03:00:11;45.47;;;17.95;;
13269;SDS011;6703;51.994;7.570;2023-02-08T03:02:47;43.95;;;17.90;;
13269;SDS011;6703;51.994;7.570;2023-02-08T03:05:15;46.58;;;18.35;;
13269;SDS011;6703;51.994;7.570;2023-02-08T03:07:59;40.27;;;17.10;;
13269;SDS011;6703;51.994;7.570;2023-02-08T03:10:34;48.05;;;18.15;;
13269;SDS011;6703;51.994;7.570;2023-02-08T03:13:16;48.70;;;19.27;;
13269;SDS011;6703;51.994;7.570;2023-02-08T03:15:49;49.22;;;18.75;;
13269;SDS011;6703;51.994;7.570;2023-02-08T03:18:27;45.53;;;18.45;;
13269;SDS011;6703;51.994;7.570;2023-02-08T03:20:59;51.00;;;18.13;;
13269;SDS011;6703;51.994;7.570;2023-02-08T03:23:29;46.92;;;18.08;;
13269;SDS011;6703;51.994;7.570;2023-02-08T03:26:00;49.90;;;18.58;;
13269;SDS011;6703;51.994;7.570;2023-02-08T03:28:32;47.85;;;18.48;;
13269;SDS011;6703;51.994;7.570;2023-02-08T03:31:04;44.97;;;18.73;;
13269;SDS011;6703;51.994;7.570;2023-02-08T03:33:37;45.13;;;17.95;;
13269;SDS011;6703;51.994;7.570;2023-02-08T03:36:07;47.63;;;18.88;;
13269;SDS011;6703;51.994;7.570;2023-02-08T03:38:39;46.92;;;18.15;;
13269;SDS011;6703;51.994;7.570;2023-02-08T03:41:08;45.13;;;16.90;;
13269;SDS011;6703;51.994;7.570;2023-02-08T03:43:39;44.38;;;17.73;;
13269;SDS011;6703;51.994;7.570;2023-02-08T03:46:10;42.55;;;17.27;;
13269;SDS011;6703;51.994;7.570;2023-02-08T03:48:44;46.88;;;18.90;;
13269;SDS011;6703;51.994;7.570;2023-02-08T03:51:12;46.53;;;17.90;;
13269;SDS011;6703;51.994;7.570;2023-02-08T03:53:41;45.85;;;18.05;;
13269;SDS011;6703;51.994;7.570;2023-02-08T03:56:12;50.28;;;18.38;;
13269;SDS011;6703;51.994;7.570;2023-02-08T03:58:43;47.92;;;18.75;;
13269;SDS011;6703;51.994;7.570;2023-02-08T04:01:14;45.20;;;17.33;;
13269;SDS011;6703;51.994;7.570;2023-02-08T04:03:45;44.10;;;18.15;;
13269;SDS011;6703;51.994;7.570;2023-02-08T04:06:15;47.23;;;17.57;;
13269;SDS011;6703;51.994;7.570;2023-02-08T04:08:43;43.63;;;17.90;;
13269;SDS011;6703;51.994;7.570;2023-02-08T04:11:10;46.28;;;17.67;;
13269;SDS011;6703;51.994;7.570;2023-02-08T04:13:38;50.17;;;18.83;;
13269;SDS011;6703;51.994;7.570;2023-02-08T04:16:06;45.40;;;17.92;;
13269;SDS011;6703;51.994;7.570;2023-02-08T04:18:35;53.10;;;18.38;;
13269;SDS011;6703;51.994;7.570;2023-02-08T04:21:04;45.20;;;18.45;;
13269;SDS011;6703;51.994;7.570;2023-02-08T04:23:32;45.42;;;17.30;;
13269;SDS011;6703;51.994;7.570;2023-02-08T04:26:00;48.78;;;17.92;;
13269;SDS011;6703;51.994;7.570;2023-02-08T04:28:29;41.63;;;16.63;;
13269;SDS011;6703;51.994;7.570;2023-02-08T04:30:57;42.88;;;16.67;;
13269;SDS011;6703;51.994;7.570;2023-02-08T04:33:24;39.00;;;16.52;;
13269;SDS011;6703;51.994;7.570;2023-02-08T04:35:52;45.40;;;17.98;;
13269;SDS011;6703;51.994;7.570;2023-02-08T04:38:22;46.80;;;18.30;;
13269;SDS011;6703;51.994;7.570;2023-02-08T04:40:49;43.65;;;17.35;;
13269;SDS011;6703;51.994;7.570;2023-02-08T04:43:17;49.33;;;16.98;;
13269;SDS011;6703;51.994;7.570;2023-02-08T04:45:45;45.30;;;17.83;;
13269;SDS011;6703;51.994;7.570;2023-02-08T04:48:13;48.15;;;17.33;;
13269;SDS011;6703;51.994;7.570;2023-02-08T04:50:41;47.75;;;18.25;;
13269;SDS011;6703;51.994;7.570;2023-02-08T04:53:09;42.53;;;17.17;;
13269;SDS011;6703;51.994;7.570;2023-02-08T04:55:38;49.07;;;18.03;;
13269;SDS011;6703;51.994;7.570;2023-02-08T04:58:06;48.20;;;17.77;;
13269;SDS011;6703;51.994;7.570;2023-02-08T05:00:34;48.53;;;17.67;;
13269;SDS011;6703;51.994;7.570;2023-02-08T05:03:01;43.10;;;17.77;;
13269;SDS011;6703;51.994;7.570;2023-02-08T05:05:29;45.42;;;16.65;;
13269;SDS011;6703;51.994;7.570;2023-02-08T05:07:58;42.08;;;16.88;;
13269;SDS011;6703;51.994;7.570;2023-02-08T05:10:25;49.10;;;16.87;;
13269;SDS011;6703;51.994;7.570;2023-02-08T05:12:55;51.00;;;18.27;;
13269;SDS011;6703;51.994;7.570;2023-02-08T05:15:22;40.42;;;16.05;;
13269;SDS011;6703;51.994;7.570;2023-02-08T05:17:50;45.83;;;16.65;;
13269;SDS011;6703;51.994;7.570;2023-02-08T05:20:18;41.73;;;16.97;;
13269;SDS011;6703;51.994;7.570;2023-02-08T05:22:46;54.17;;;18.52;;
13269;SDS011;6703;51.994;7.570;2023-02-08T05:25:14;41.37;;;17.23;;
13269;SDS011;6703;51.994;7.570;2023-02-08T05:27:43;40.10;;;16.65;;
13269;SDS011;6703;51.994;7.570;2023-02-08T05:30:12;42.78;;;17.08;;
13269;SDS011;6703;51.994;7.570;2023-02-08T05:32:41;47.30;;;17.60;;
13269;SDS011;6703;51.994;7.570;2023-02-08T05:35:09;43.10;;;17.08;;
13269;SDS011;6703;51.994;7.570;2023-02-08T05:37:37;41.33;;;17.40;;
13269;SDS011;6703;51.994;7.570;2023-02-08T05:40:05;44.88;;;17.85;;
13269;SDS011;6703;51.994;7.570;2023-02-08T05:42:33;41.75;;;17.25;;
13269;SDS011;6703;51.994;7.570;2023-02-08T05:45:01;45.33;;;17.55;;
13269;SDS011;6703;51.994;7.570;2023-02-08T05:47:30;45.38;;;17.95;;
13269;SDS011;6703;51.994;7.570;2023-02-08T05:49:57;45.90;;;18.70;;
13269;SDS011;6703;51.994;7.570;2023-02-08T05:52:25;45.60;;;17.88;;
13269;SDS011;6703;51.994;7.570;2023-02-08T05:54:53;49.47;;;18.03;;
13269;SDS011;6703;51.994;7.570;2023-02-08T05:57:21;45.58;;;17.98;;
13269;SDS011;6703;51.994;7.570;2023-02-08T05:59:48;50.20;;;18.13;;
13269;SDS011;6703;51.994;7.570;2023-02-08T06:02:16;43.03;;;17.20;;
13269;SDS011;6703;51.994;7.570;2023-02-08T06:04:45;50.00;;;17.95;;
13269;SDS011;6703;51.994;7.570;2023-02-08T06:07:13;48.78;;;18.73;;
13269;SDS011;6703;51.994;7.570;2023-02-08T06:09:40;45.28;;;16.77;;
13269;SDS011;6703;51.994;7.570;2023-02-08T06:12:09;51.50;;;18.60;;
13269;SDS011;6703;51.994;7.570;2023-02-08T06:14:36;44.90;;;17.70;;
13269;SDS011;6703;51.994;7.570;2023-02-08T06:17:04;48.38;;;17.40;;
13269;SDS011;6703;51.994;7.570;2023-02-08T06:19:32;50.35;;;17.95;;
13269;SDS011;6703;51.994;7.570;2023-02-08T06:22:01;41.63;;;17.35;;
13269;SDS011;6703;51.994;7.570;2023-02-08T06:24:28;49.22;;;17.75;;
13269;SDS011;6703;51.994;7.570;2023-02-08T06:26:56;42.67;;;16.40;;
13269;SDS011;6703;51.994;7.570;2023-02-08T06:29:24;44.20;;;17.05;;
13269;SDS011;6703;51.994;7.570;2023-02-08T06:31:52;46.50;;;17.80;;
13269;SDS011;6703;51.994;7.570;2023-02-08T06:34:20;43.92;;;17.88;;
13269;SDS011;6703;51.994;7.570;2023-02-08T06:36:47;41.10;;;16.67;;
13269;SDS011;6703;51.994;7.570;2023-02-08T06:39:17;45.88;;;16.88;;
13269;SDS011;6703;51.994;7.570;2023-02-08T06:41:45;44.47;;;17.13;;
13269;SDS011;6703;51.994;7.570;2023-02-08T06:44:12;43.03;;;16.67;;
13269;SDS011;6703;51.994;7.570;2023-02-08T06:46:40;44.65;;;17.13;;
13269;SDS011;6703;51.994;7.570;2023-02-08T06:51:57;40.30;;;16.52;;
13269;SDS011;6703;51.994;7.570;2023-02-08T06:54:27;44.97;;;17.15;;
13269;SDS011;6703;51.994;7.570;2023-02-08T06:56:54;39.90;;;16.13;;
13269;SDS011;6703;51.994;7.570;2023-02-08T06:59:22;39.80;;;15.63;;
13269;SDS011;6703;51.994;7.570;2023-02-08T07:01:50;43.42;;;17.08;;
13269;SDS011;6703;51.994;7.570;2023-02-08T07:04:17;43.33;;;16.70;;
13269;SDS011;6703;51.994;7.570;2023-02-08T07:06:46;44.20;;;15.32;;
13269;SDS011;6703;51.994;7.570;2023-02-08T07:09:14;44.92;;;16.35;;
13269;SDS011;6703;51.994;7.570;2023-02-08T07:11:43;37.30;;;15.23;;
13269;SDS011;6703;51.994;7.570;2023-02-08T07:14:11;44.57;;;16.60;;
13269;SDS011;6703;51.994;7.570;2023-02-08T07:16:40;42.22;;;16.77;;
13269;SDS011;6703;51.994;7.570;2023-02-08T07:19:07;41.45;;;16.75;;
13269;SDS011;6703;51.994;7.570;2023-02-08T07:21:35;40.27;;;15.93;;
13269;SDS011;6703;51.994;7.570;2023-02-08T07:24:03;41.75;;;15.75;;
13269;SDS011;6703;51.994;7.570;2023-02-08T07:26:31;41.40;;;16.00;;
13269;SDS011;6703;51.994;7.570;2023-02-08T07:29:00;38.57;;;16.50;;
13269;SDS011;6703;51.994;7.570;2023-02-08T07:31:28;40.07;;;16.33;;
13269;SDS011;6703;51.994;7.570;2023-02-08T07:33:57;40.42;;;16.90;;
13269;SDS011;6703;51.994;7.570;2023-02-08T07:36:25;38.22;;;16.42;;
13269;SDS011;6703;51.994;7.570;2023-02-08T07:38:52;45.33;;;16.67;;
13269;SDS011;6703;51.994;7.570;2023-02-08T07:41:20;44.67;;;17.40;;
13269;SDS011;6703;51.994;7.570;2023-02-08T07:43:48;40.80;;;16.13;;
13269;SDS011;6703;51.994;7.570;2023-02-08T07:46:18;39.65;;;15.95;;
13269;SDS011;6703;51.994;7.570;2023-02-08T07:48:47;40.30;;;15.98;;
13269;SDS011;6703;51.994;7.570;2023-02-08T07:51:15;36.40;;;15.57;;
13269;SDS011;6703;51.994;7.570;2023-02-08T07:53:43;41.53;;;16.20;;
13269;SDS011;6703;51.994;7.570;2023-02-08T07:56:11;42.43;;;15.47;;
13269;SDS011;6703;51.994;7.570;2023-02-08T07:58:39;41.38;;;16.08;;
13269;SDS011;6703;51.994;7.570;2023-02-08T08:01:07;41.97;;;16.60;;
13269;SDS011;6703;51.994;7.570;2023-02-08T08:03:48;48.50;;;17.37;;
13269;SDS011;6703;51.994;7.570;2023-02-08T08:06:16;44.70;;;16.67;;
13269;SDS011;6703;51.994;7.570;2023-02-08T08:08:45;46.05;;;17.77;;
13269;SDS011;6703;51.994;7.570;2023-02-08T08:11:13;44.75;;;16.98;;
13269;SDS011;6703;51.994;7.570;2023-02-08T08:13:41;44.88;;;17.08;;
13269;SDS011;6703;51.994;7.570;2023-02-08T08:16:09;48.65;;;18.02;;
13269;SDS011;6703;51.994;7.570;2023-02-08T08:18:36;44.40;;;16.80;;
13269;SDS011;6703;51.994;7.570;2023-02-08T08:21:06;45.25;;;17.75;;
13269;SDS011;6703;51.994;7.570;2023-02-08T08:23:34;44.47;;;17.20;;
13269;SDS011;6703;51.994;7.570;2023-02-08T08:26:05;45.03;;;17.75;;
13269;SDS011;6703;51.994;7.570;2023-02-08T08:28:33;48.63;;;17.42;;
13269;SDS011;6703;51.994;7.570;2023-02-08T08:31:01;49.70;;;18.43;;
13269;SDS011;6703;51.994;7.570;2023-02-08T08:33:29;41.03;;;16.23;;
13269;SDS011;6703;51.994;7.570;2023-02-08T08:35:57;44.83;;;18.00;;
13269;SDS011;6703;51.994;7.570;2023-02-08T08:38:26;42.90;;;16.17;;
13269;SDS011;6703;51.994;7.570;2023-02-08T08:40:54;40.90;;;16.80;;
13269;SDS011;6703;51.994;7.570;2023-02-08T08:43:21;45.58;;;16.83;;
13269;SDS011;6703;51.994;7.570;2023-02-08T08:45:49;41.20;;;16.50;;
13269;SDS011;6703;51.994;7.570;2023-02-08T08:48:18;43.75;;;16.85;;
13269;SDS011;6703;51.994;7.570;2023-02-08T08:50:46;40.88;;;17.25;;
13269;SDS011;6703;51.994;7.570;2023-02-08T08:53:15;43.85;;;16.98;;
13269;SDS011;6703;51.994;7.570;2023-02-08T08:55:44;41.17;;;16.63;;
13269;SDS011;6703;51.994;7.570;2023-02-08T08:58:12;40.40;;;17.00;;
13269;SDS011;6703;51.994;7.570;2023-02-08T09:00:39;39.65;;;16.52;;
13269;SDS011;6703;51.994;7.570;2023-02-08T09:03:08;45.07;;;17.53;;
13269;SDS011;6703;51.994;7.570;2023-02-08T09:08:57;45.13;;;16.80;;
13269;SDS011;6703;51.994;7.570;2023-02-08T09:11:26;45.50;;;16.30;;
13269;SDS011;6703;51.994;7.570;2023-02-08T09:13:54;44.67;;;17.65;;
13269;SDS011;6703;51.994;7.570;2023-02-08T09:16:22;37.85;;;16.63;;
13269;SDS011;6703;51.994;7.570;2023-02-08T09:18:50;42.60;;;17.23;;
13269;SDS011;6703;51.994;7.570;2023-02-08T09:21:19;37.55;;;15.38;;
13269;SDS011;6703;51.994;7.570;2023-02-08T09:23:49;39.40;;;15.60;;
13269;SDS011;6703;51.994;7.570;2023-02-08T09:26:18;35.38;;;15.07;;
13269;SDS011;6703;51.994;7.570;2023-02-08T09:28:48;38.63;;;15.57;;
13269;SDS011;6703;51.994;7.570;2023-02-08T09:31:17;36.88;;;15.32;;
13269;SDS011;6703;51.994;7.570;2023-02-08T09:33:47;30.33;;;13.68;;
13269;SDS011;6703;51.994;7.570;2023-02-08T09:38:52;31.98;;;14.18;;
13269;SDS011;6703;51.994;7.570;2023-02-08T09:41:26;33.03;;;14.10;;
13269;SDS011;6703;51.994;7.570;2023-02-08T09:44:09;33.23;;;14.17;;
13269;SDS011;6703;51.994;7.570;2023-02-08T09:46:42;31.70;;;12.98;;
13269;SDS011;6703;51.994;7.570;2023-02-08T09:49:13;33.90;;;13.88;;
13269;SDS011;6703;51.994;7.570;2023-02-08T09:51:43;32.55;;;13.43;;
13269;SDS011;6703;51.994;7.570;2023-02-08T09:54:14;33.28;;;13.40;;
13269;SDS011;6703;51.994;7.570;2023-02-08T09:56:44;29.33;;;12.93;;
13269;SDS011;6703;51.994;7.570;2023-02-08T09:59:15;29.40;;;13.10;;
13269;SDS011;6703;51.994;7.570;2023-02-08T10:01:45;32.95;;;13.43;;
13269;SDS011;6703;51.994;7.570;2023-02-08T10:04:17;27.98;;;12.40;;
13269;SDS011;6703;51.994;7.570;2023-02-08T10:06:48;27.73;;;12.33;;
13269;SDS011;6703;51.994;7.570;2023-02-08T10:09:17;29.73;;;12.10;;
13269;SDS011;6703;51.994;7.570;2023-02-08T10:11:49;27.02;;;11.07;;
13269;SDS011;6703;51.994;7.570;2023-02-08T10:14:36;29.15;;;11.85;;
13269;SDS011;6703;51.994;7.570;2023-02-08T10:17:08;30.33;;;12.77;;
13269;SDS011;6703;51.994;7.570;2023-02-08T10:19:51;30.95;;;12.55;;
13269;SDS011;6703;51.994;7.570;2023-02-08T10:22:27;28.95;;;11.85;;
13269;SDS011;6703;51.994;7.570;2023-02-08T10:25:10;27.23;;;12.23;;
13269;SDS011;6703;51.994;7.570;2023-02-08T10:27:48;23.67;;;10.85;;
13269;SDS011;6703;51.994;7.570;2023-02-08T10:30:27;24.83;;;11.60;;
13269;SDS011;6703;51.994;7.570;2023-02-08T10:33:00;29.77;;;12.65;;
13269;SDS011;6703;51.994;7.570;2023-02-08T10:35:30;26.83;;;10.95;;
13269;SDS011;6703;51.994;7.570;2023-02-08T10:38:10;27.45;;;11.02;;
13269;SDS011;6703;51.994;7.570;2023-02-08T10:41:00;25.70;;;9.97;;
13269;SDS011;6703;51.994;7.570;2023-02-08T10:43:31;26.10;;;10.80;;
13269;SDS011;6703;51.994;7.570;2023-02-08T10:46:06;23.77;;;9.85;;
13269;SDS011;6703;51.994;7.570;2023-02-08T10:48:41;23.27;;;10.32;;
13269;SDS011;6703;51.994;7.570;2023-02-08T10:51:16;29.17;;;10.57;;
13269;SDS011;6703;51.994;7.570;2023-02-08T10:53:48;20.30;;;9.70;;
13269;SDS011;6703;51.994;7.570;2023-02-08T10:56:29;21.90;;;9.52;;
13269;SDS011;6703;51.994;7.570;2023-02-08T10:59:06;25.30;;;9.95;;
13269;SDS011;6703;51.994;7.570;2023-02-08T11:01:42;20.95;;;9.20;;
13269;SDS011;6703;51.994;7.570;2023-02-08T11:04:11;19.98;;;8.75;;
13269;SDS011;6703;51.994;7.570;2023-02-08T11:06:40;20.17;;;9.23;;
13269;SDS011;6703;51.994;7.570;2023-02-08T11:09:18;20.37;;;8.97;;
13269;SDS011;6703;51.994;7.570;2023-02-08T11:11:48;25.75;;;10.50;;
13269;SDS011;6703;51.994;7.570;2023-02-08T11:14:18;22.10;;;10.45;;
13269;SDS011;6703;51.994;7.570;2023-02-08T11:16:52;24.60;;;10.17;;
13269;SDS011;6703;51.994;7.570;2023-02-08T11:19:21;29.42;;;10.48;;
13269;SDS011;6703;51.994;7.570;2023-02-08T11:21:54;23.38;;;10.93;;
13269;SDS011;6703;51.994;7.570;2023-02-08T11:24:29;22.00;;;9.85;;
13269;SDS011;6703;51.994;7.570;2023-02-08T11:27:01;25.60;;;9.93;;
13269;SDS011;6703;51.994;7.570;2023-02-08T11:29:29;24.80;;;10.40;;
13269;SDS011;6703;51.994;7.570;2023-02-08T11:32:00;24.10;;;9.15;;
13269;SDS011;6703;51.994;7.570;2023-02-08T11:34:30;23.40;;;9.30;;
13269;SDS011;6703;51.994;7.570;2023-02-08T11:37:01;19.83;;;9.17;;
13269;SDS011;6703;51.994;7.570;2023-02-08T11:39:32;19.20;;;8.65;;
13269;SDS011;6703;51.994;7.570;2023-02-08T11:42:03;21.35;;;8.45;;
13269;SDS011;6703;51.994;7.570;2023-02-08T11:44:33;17.92;;;8.40;;
13269;SDS011;6703;51.994;7.570;2023-02-08T11:47:05;17.05;;;7.60;;
13269;SDS011;6703;51.994;7.570;2023-02-08T11:49:35;16.60;;;7.05;;
13269;SDS011;6703;51.994;7.570;2023-02-08T11:52:04;19.87;;;8.00;;
13269;SDS011;6703;51.994;7.570;2023-02-08T11:54:34;17.13;;;7.55;;
13269;SDS011;6703;51.994;7.570;2023-02-08T11:57:10;17.95;;;6.95;;
13269;SDS011;6703;51.994;7.570;2023-02-08T11:59:39;16.38;;;7.30;;
13269;SDS011;6703;51.994;7.570;2023-02-08T12:02:28;15.50;;;6.82;;
13269;SDS011;6703;51.994;7.570;2023-02-08T12:05:01;13.73;;;6.07;;
13269;SDS011;6703;51.994;7.570;2023-02-08T12:07:31;12.82;;;6.50;;
13269;SDS011;6703;51.994;7.570;2023-02-08T12:10:11;14.60;;;6.18;;
13269;SDS011;6703;51.994;7.570;2023-02-08T12:12:48;15.32;;;6.70;;
13269;SDS011;6703;51.994;7.570;2023-02-08T12:15:24;12.98;;;5.93;;
13269;SDS011;6703;51.994;7.570;2023-02-08T12:18:06;11.45;;;5.88;;
13269;SDS011;6703;51.994;7.570;2023-02-08T12:20:48;15.15;;;5.80;;
13269;SDS011;6703;51.994;7.570;2023-02-08T12:23:23;12.65;;;5.70;;
13269;SDS011;6703;51.994;7.570;2023-02-08T12:26:00;15.63;;;5.63;;
13269;SDS011;6703;51.994;7.570;2023-02-08T12:28:38;13.48;;;5.43;;
13269;SDS011;6703;51.994;7.570;2023-02-08T12:31:27;13.30;;;5.32;;
13269;SDS011;6703;51.994;7.570;2023-02-08T12:34:06;11.13;;;5.65;;
13269;SDS011;6703;51.994;7.570;2023-02-08T12:36:46;15.23;;;4.97;;
13269;SDS011;6703;51.994;7.570;2023-02-08T12:39:42;12.32;;;5.20;;
13269;SDS011;6703;51.994;7.570;2023-02-08T12:42:33;12.57;;;5.83;;
13269;SDS011;6703;51.994;7.570;2023-02-08T12:45:13;14.83;;;5.40;;
13269;SDS011;6703;51.994;7.570;2023-02-08T12:48:01;13.63;;;5.07;;
13269;SDS011;6703;51.994;7.570;2023-02-08T12:50:36;11.18;;;4.63;;
13269;SDS011;6703;51.994;7.570;2023-02-08T12:53:29;13.15;;;4.15;;
13269;SDS011;6703;51.994;7.570;2023-02-08T12:55:59;9.40;;;4.75;;
13269;SDS011;6703;51.994;7.570;2023-02-08T12:58:30;11.40;;;4.93;;
13269;SDS011;6703;51.994;7.570;2023-02-08T13:01:04;16.23;;;5.43;;
13269;SDS011;6703;51.994;7.570;2023-02-08T13:03:38;13.38;;;4.90;;
13269;SDS011;6703;51.994;7.570;2023-02-08T13:06:14;13.35;;;4.72;;
13269;SDS011;6703;51.994;7.570;2023-02-08T13:08:44;11.88;;;5.00;;
13269;SDS011;6703;51.994;7.570;2023-02-08T13:11:16;11.73;;;5.15;;
13269;SDS011;6703;51.994;7.570;2023-02-08T13:13:50;11.55;;;5.07;;
13269;SDS011;6703;51.994;7.570;2023-02-08T13:16:22;13.57;;;4.78;;
13269;SDS011;6703;51.994;7.570;2023-02-08T13:18:52;11.45;;;5.13;;
13269;SDS011;6703;51.994;7.570;2023-02-08T13:21:23;11.48;;;5.13;;
13269;SDS011;6703;51.994;7.570;2023-02-08T13:23:52;11.73;;;4.90;;
13269;SDS011;6703;51.994;7.570;2023-02-08T13:26:21;11.90;;;4.70;;
13269;SDS011;6703;51.994;7.570;2023-02-08T13:28:52;11.35;;;5.18;;
13269;SDS011;6703;51.994;7.570;2023-02-08T13:31:22;13.77;;;5.20;;
13269;SDS011;6703;51.994;7.570;2023-02-08T13:33:51;10.48;;;4.78;;
13269;SDS011;6703;51.994;7.570;2023-02-08T13:36:29;10.60;;;4.37;;
13269;SDS011;6703;51.994;7.570;2023-02-08T13:38:59;9.88;;;3.92;;
13269;SDS011;6703;51.994;7.570;2023-02-08T13:41:28;11.60;;;4.70;;
13269;SDS011;6703;51.994;7.570;2023-02-08T13:43:57;8.77;;;4.05;;
13269;SDS011;6703;51.994;7.570;2023-02-08T13:46:27;8.50;;;4.10;;
13269;SDS011;6703;51.994;7.570;2023-02-08T13:49:00;9.30;;;4.00;;
13269;SDS011;6703;51.994;7.570;2023-02-08T13:51:51;10.90;;;4.63;;
13269;SDS011;6703;51.994;7.570;2023-02-08T13:54:19;9.95;;;4.13;;
13269;SDS011;6703;51.994;7.570;2023-02-08T13:56:47;8.65;;;3.63;;
13269;SDS011;6703;51.994;7.570;2023-02-08T13:59:23;9.13;;;3.63;;
13269;SDS011;6703;51.994;7.570;2023-02-08T14:02:09;11.13;;;3.70;;
13269;SDS011;6703;51.994;7.570;2023-02-08T14:04:48;13.47;;;4.00;;
13269;SDS011;6703;51.994;7.570;2023-02-08T14:07:23;9.05;;;4.10;;
13269;SDS011;6703;51.994;7.570;2023-02-08T14:10:02;12.77;;;4.00;;
13269;SDS011;6703;51.994;7.570;2023-02-08T14:12:39;7.10;;;3.70;;
13269;SDS011;6703;51.994;7.570;2023-02-08T14:15:29;7.32;;;3.65;;
13269;SDS011;6703;51.994;7.570;2023-02-08T14:17:58;9.50;;;4.07;;
13269;SDS011;6703;51.994;7.570;2023-02-08T14:20:31;12.80;;;3.72;;
13269;SDS011;6703;51.994;7.570;2023-02-08T14:23:03;7.30;;;3.45;;
13269;SDS011;6703;51.994;7.570;2023-02-08T14:25:39;7.57;;;3.80;;
13269;SDS011;6703;51.994;7.570;2023-02-08T14:28:21;12.15;;;4.05;;
13269;SDS011;6703;51.994;7.570;2023-02-08T14:30:54;8.32;;;3.67;;
13269;SDS011;6703;51.994;7.570;2023-02-08T14:33:24;8.60;;;3.63;;
13269;SDS011;6703;51.994;7.570;2023-02-08T14:35:54;6.32;;;3.38;;
13269;SDS011;6703;51.994;7.570;2023-02-08T14:41:44;9.40;;;3.78;;
13269;SDS011;6703;51.994;7.570;2023-02-08T14:47:14;8.18;;;3.35;;
13269;SDS011;6703;51.994;7.570;2023-02-08T14:50:35;8.68;;;3.20;;
13269;SDS011;6703;51.994;7.570;2023-02-08T14:53:18;9.82;;;3.63;;
13269;SDS011;6703;51.994;7.570;2023-02-08T14:55:53;7.43;;;3.63;;
13269;SDS011;6703;51.994;7.570;2023-02-08T14:58:26;6.87;;;3.57;;
13269;SDS011;6703;51.994;7.570;2023-02-08T15:00:56;7.28;;;3.70;;
13269;SDS011;6703;51.994;7.570;2023-02-08T15:03:28;6.55;;;3.63;;
13269;SDS011;6703;51.994;7.570;2023-02-08T15:06:06;9.25;;;3.92;;
13269;SDS011;6703;51.994;7.570;2023-02-08T15:08:50;12.90;;;3.70;;
13269;SDS011;6703;51.994;7.570;2023-02-08T15:11:20;6.68;;;4.05;;
13269;SDS011;6703;51.994;7.570;2023-02-08T15:13:53;8.50;;;3.65;;
13269;SDS011;6703;51.994;7.570;2023-02-08T15:16:27;7.80;;;3.78;;
13269;SDS011;6703;51.994;7.570;2023-02-08T15:18:57;9.05;;;3.38;;